sensor_id;sensor_type;location;lat;lon;timestamp;pressure;altitude;pressure_sealevel;temperature;humidity
13241;BME280;6687;47.790;7.322;2022-08-01T06:14:04;99103.41;;;23.40;42.21
13241;BME280;6687;47.790;7.322;2022-08-01T06:16:31;99103.59;;;23.54;42.73
13241;BME280;6687;47.790;7.322;2022-08-01T06:18:58;99094.34;;;23.63;43.25
13241;BME280;6687;47.790;7.322;2022-08-01T06:21:24;99087.47;;;23.78;41.89
13241;BME280;6687;47.790;7.322;2022-08-01T06:23:51;99092.16;;;23.90;41.14
13241;BME280;6687;47.790;7.322;2022-08-01T06:26:18;99090.28;;;24.10;41.17
13241;BME280;6687;47.790;7.322;2022-08-01T06:28:45;99095.00;;;24.20;40.67
13241;BME280;6687;47.790;7.322;2022-08-01T06:31:14;99092.59;;;24.33;40.26
13241;BME280;6687;47.790;7.322;2022-08-01T06:33:41;99094.41;;;24.49;40.62
13241;BME280;6687;47.790;7.322;2022-08-01T06:36:07;99100.03;;;24.60;40.86
13241;BME280;6687;47.790;7.322;2022-08-01T06:38:35;99099.19;;;24.75;43.84
13241;BME280;6687;47.790;7.322;2022-08-01T06:41:01;99098.53;;;24.88;41.16
13241;BME280;6687;47.790;7.322;2022-08-01T06:43:28;99091.09;;;24.94;44.23
13241;BME280;6687;47.790;7.322;2022-08-01T06:45:56;99095.38;;;25.13;43.95
13241;BME280;6687;47.790;7.322;2022-08-01T06:48:24;99089.50;;;25.24;40.61
13241;BME280;6687;47.790;7.322;2022-08-01T06:50:51;99090.53;;;25.37;39.99
13241;BME280;6687;47.790;7.322;2022-08-01T06:53:33;99090.75;;;25.48;39.24
13241;BME280;6687;47.790;7.322;2022-08-01T06:55:59;99094.31;;;25.63;38.63
13241;BME280;6687;47.790;7.322;2022-08-01T06:58:26;99091.13;;;25.72;38.09
13241;BME280;6687;47.790;7.322;2022-08-01T07:00:53;99096.56;;;25.85;38.04
13241;BME280;6687;47.790;7.322;2022-08-01T07:03:19;99094.56;;;26.05;38.03
13241;BME280;6687;47.790;7.322;2022-08-01T07:05:48;99098.19;;;26.18;37.92
13241;BME280;6687;47.790;7.322;2022-08-01T07:08:14;99099.00;;;26.34;38.03
13241;BME280;6687;47.790;7.322;2022-08-01T07:10:41;99096.50;;;26.46;37.45
13241;BME280;6687;47.790;7.322;2022-08-01T07:13:08;99091.94;;;26.48;37.38
13241;BME280;6687;47.790;7.322;2022-08-01T07:15:35;99088.00;;;26.69;36.74
13241;BME280;6687;47.790;7.322;2022-08-01T07:18:01;99095.19;;;26.82;37.04
13241;BME280;6687;47.790;7.322;2022-08-01T07:20:29;99088.53;;;27.03;38.89
13241;BME280;6687;47.790;7.322;2022-08-01T07:22:57;99090.38;;;27.15;37.74
13241;BME280;6687;47.790;7.322;2022-08-01T07:25:24;99081.75;;;27.26;37.17
13241;BME280;6687;47.790;7.322;2022-08-01T07:27:50;99084.13;;;27.31;35.89
13241;BME280;6687;47.790;7.322;2022-08-01T07:30:17;99090.84;;;27.36;38.81
13241;BME280;6687;47.790;7.322;2022-08-01T07:32:44;99082.09;;;27.62;36.45
13241;BME280;6687;47.790;7.322;2022-08-01T07:35:11;99082.72;;;27.65;35.58
13241;BME280;6687;47.790;7.322;2022-08-01T07:37:37;99081.81;;;27.79;35.41
13241;BME280;6687;47.790;7.322;2022-08-01T07:40:07;99078.56;;;28.01;36.49
13241;BME280;6687;47.790;7.322;2022-08-01T07:42:34;99078.69;;;28.12;35.84
13241;BME280;6687;47.790;7.322;2022-08-01T07:45:00;99078.59;;;28.14;35.73
13241;BME280;6687;47.790;7.322;2022-08-01T07:47:27;99072.41;;;28.26;35.02
13241;BME280;6687;47.790;7.322;2022-08-01T07:49:59;99078.38;;;28.43;35.97
13241;BME280;6687;47.790;7.322;2022-08-01T07:52:26;99081.81;;;28.58;36.37
13241;BME280;6687;47.790;7.322;2022-08-01T07:54:53;99076.00;;;28.76;36.11
13241;BME280;6687;47.790;7.322;2022-08-01T07:57:21;99068.31;;;28.85;35.45
13241;BME280;6687;47.790;7.322;2022-08-01T07:59:48;99071.69;;;29.00;35.36
13241;BME280;6687;47.790;7.322;2022-08-01T08:02:15;99063.78;;;29.11;34.44
13241;BME280;6687;47.790;7.322;2022-08-01T08:04:42;99063.28;;;29.30;34.85
13241;BME280;6687;47.790;7.322;2022-08-01T08:07:08;99069.38;;;29.32;33.70
13241;BME280;6687;47.790;7.322;2022-08-01T08:09:35;99067.50;;;29.45;34.51
13241;BME280;6687;47.790;7.322;2022-08-01T08:12:02;99072.69;;;29.71;33.70
13241;BME280;6687;47.790;7.322;2022-08-01T08:14:30;99067.13;;;29.74;33.56
13241;BME280;6687;47.790;7.322;2022-08-01T08:16:57;99068.38;;;29.81;33.86
13241;BME280;6687;47.790;7.322;2022-08-01T08:19:24;99065.03;;;30.02;33.67
13241;BME280;6687;47.790;7.322;2022-08-01T08:21:50;99065.44;;;30.08;32.78
13241;BME280;6687;47.790;7.322;2022-08-01T08:24:17;99068.09;;;30.20;32.52
13241;BME280;6687;47.790;7.322;2022-08-01T08:26:49;99068.78;;;30.35;32.42
13241;BME280;6687;47.790;7.322;2022-08-01T08:29:16;99063.41;;;30.46;32.69
13241;BME280;6687;47.790;7.322;2022-08-01T08:31:44;99066.81;;;30.59;32.19
13241;BME280;6687;47.790;7.322;2022-08-01T08:34:11;99063.53;;;30.56;32.68
13241;BME280;6687;47.790;7.322;2022-08-01T08:36:38;99057.09;;;30.69;32.50
13241;BME280;6687;47.790;7.322;2022-08-01T08:39:05;99055.63;;;30.99;31.57
13241;BME280;6687;47.790;7.322;2022-08-01T08:41:32;99054.16;;;31.06;30.99
13241;BME280;6687;47.790;7.322;2022-08-01T08:44:00;99059.72;;;31.26;31.21
13241;BME280;6687;47.790;7.322;2022-08-01T08:46:27;99055.31;;;31.25;31.59
13241;BME280;6687;47.790;7.322;2022-08-01T08:48:56;99052.94;;;31.10;31.59
13241;BME280;6687;47.790;7.322;2022-08-01T08:51:25;99055.00;;;31.39;30.99
13241;BME280;6687;47.790;7.322;2022-08-01T08:53:54;99051.38;;;31.51;30.79
13241;BME280;6687;47.790;7.322;2022-08-01T08:56:23;99046.94;;;31.62;30.78
13241;BME280;6687;47.790;7.322;2022-08-01T08:58:51;99045.63;;;31.77;31.00
13241;BME280;6687;47.790;7.322;2022-08-01T09:01:18;99043.56;;;32.02;30.06
13241;BME280;6687;47.790;7.322;2022-08-01T09:03:45;99045.97;;;32.05;30.21
13241;BME280;6687;47.790;7.322;2022-08-01T09:06:13;99039.41;;;32.19;29.76
13241;BME280;6687;47.790;7.322;2022-08-01T09:08:40;99044.59;;;31.89;29.20
13241;BME280;6687;47.790;7.322;2022-08-01T09:11:07;99045.19;;;32.14;28.96
13241;BME280;6687;47.790;7.322;2022-08-01T09:13:34;99042.25;;;32.48;29.05
13241;BME280;6687;47.790;7.322;2022-08-01T09:16:00;99040.75;;;32.55;28.95
13241;BME280;6687;47.790;7.322;2022-08-01T09:18:32;99040.81;;;32.75;28.57
13241;BME280;6687;47.790;7.322;2022-08-01T09:21:13;99031.19;;;32.72;28.76
13241;BME280;6687;47.790;7.322;2022-08-01T09:23:43;99036.00;;;32.78;28.64
13241;BME280;6687;47.790;7.322;2022-08-01T09:26:11;99034.53;;;32.95;29.17
13241;BME280;6687;47.790;7.322;2022-08-01T09:28:40;99046.38;;;32.83;29.53
13241;BME280;6687;47.790;7.322;2022-08-01T09:31:12;99037.97;;;33.26;27.97
13241;BME280;6687;47.790;7.322;2022-08-01T09:33:47;99044.50;;;33.43;28.18
13241;BME280;6687;47.790;7.322;2022-08-01T09:36:15;99047.16;;;33.24;29.04
13241;BME280;6687;47.790;7.322;2022-08-01T09:38:42;99033.31;;;33.09;29.26
13241;BME280;6687;47.790;7.322;2022-08-01T09:41:09;99039.13;;;33.43;28.82
13241;BME280;6687;47.790;7.322;2022-08-01T09:43:36;99039.13;;;33.73;28.62
13241;BME280;6687;47.790;7.322;2022-08-01T09:46:04;99039.84;;;33.84;28.49
13241;BME280;6687;47.790;7.322;2022-08-01T09:48:31;99035.09;;;34.06;28.19
13241;BME280;6687;47.790;7.322;2022-08-01T09:50:59;99028.72;;;34.07;27.97
13241;BME280;6687;47.790;7.322;2022-08-01T09:53:40;99027.00;;;34.25;26.58
13241;BME280;6687;47.790;7.322;2022-08-01T09:56:10;99027.00;;;34.25;26.52
13241;BME280;6687;47.790;7.322;2022-08-01T09:58:51;99026.19;;;34.53;26.09
13241;BME280;6687;47.790;7.322;2022-08-01T10:01:20;99021.00;;;34.41;26.06
13241;BME280;6687;47.790;7.322;2022-08-01T10:03:47;99018.97;;;34.81;25.72
13241;BME280;6687;47.790;7.322;2022-08-01T10:06:29;99014.41;;;35.09;25.62
13241;BME280;6687;47.790;7.322;2022-08-01T10:08:57;99000.19;;;34.71;27.11
13241;BME280;6687;47.790;7.322;2022-08-01T10:11:24;99000.63;;;34.94;26.07
13241;BME280;6687;47.790;7.322;2022-08-01T10:13:51;99001.06;;;35.08;24.84
13241;BME280;6687;47.790;7.322;2022-08-01T10:16:19;99000.88;;;35.19;24.91
13241;BME280;6687;47.790;7.322;2022-08-01T10:18:46;98998.78;;;35.49;25.51
13241;BME280;6687;47.790;7.322;2022-08-01T10:21:13;98996.66;;;35.34;26.03
13241;BME280;6687;47.790;7.322;2022-08-01T10:23:41;98988.81;;;35.23;26.49
13241;BME280;6687;47.790;7.322;2022-08-01T10:26:10;98984.16;;;35.69;24.63
13241;BME280;6687;47.790;7.322;2022-08-01T10:28:38;98983.47;;;35.67;26.18
13241;BME280;6687;47.790;7.322;2022-08-01T10:31:06;98982.78;;;35.91;23.69
13241;BME280;6687;47.790;7.322;2022-08-01T10:33:33;98988.41;;;35.98;23.15
13241;BME280;6687;47.790;7.322;2022-08-01T10:36:01;98982.47;;;36.20;23.92
13241;BME280;6687;47.790;7.322;2022-08-01T10:38:29;98981.78;;;36.18;24.90
13241;BME280;6687;47.790;7.322;2022-08-01T10:40:57;98978.09;;;36.62;22.48
13241;BME280;6687;47.790;7.322;2022-08-01T10:43:25;98974.53;;;35.93;25.42
13241;BME280;6687;47.790;7.322;2022-08-01T10:45:52;98972.84;;;36.18;25.21
13241;BME280;6687;47.790;7.322;2022-08-01T10:48:24;98970.19;;;36.00;25.51
13241;BME280;6687;47.790;7.322;2022-08-01T10:50:55;98975.69;;;36.51;25.18
13241;BME280;6687;47.790;7.322;2022-08-01T10:53:26;98966.00;;;36.82;20.37
13241;BME280;6687;47.790;7.322;2022-08-01T10:55:59;98959.13;;;37.05;21.92
13241;BME280;6687;47.790;7.322;2022-08-01T10:58:30;98954.38;;;36.82;24.01
13241;BME280;6687;47.790;7.322;2022-08-01T11:01:15;98954.06;;;37.01;23.83
13241;BME280;6687;47.790;7.322;2022-08-01T11:03:43;98949.84;;;36.99;24.08
13241;BME280;6687;47.790;7.322;2022-08-01T11:06:16;98943.94;;;37.03;24.05
13241;BME280;6687;47.790;7.322;2022-08-01T11:08:51;98939.56;;;37.52;23.55
13241;BME280;6687;47.790;7.322;2022-08-01T11:11:19;98946.31;;;37.72;20.78
13241;BME280;6687;47.790;7.322;2022-08-01T11:14:03;98941.41;;;37.76;23.08
13241;BME280;6687;47.790;7.322;2022-08-01T11:16:36;98943.53;;;38.13;22.14
13241;BME280;6687;47.790;7.322;2022-08-01T11:19:03;98932.84;;;38.59;20.46
13241;BME280;6687;47.790;7.322;2022-08-01T11:21:59;98928.19;;;38.76;20.64
13241;BME280;6687;47.790;7.322;2022-08-01T11:24:54;98918.56;;;39.20;19.86
13241;BME280;6687;47.790;7.322;2022-08-01T11:27:25;98927.06;;;39.17;20.88
13241;BME280;6687;47.790;7.322;2022-08-01T11:30:24;98915.06;;;39.11;18.75
13241;BME280;6687;47.790;7.322;2022-08-01T11:32:56;98913.28;;;38.95;20.46
13241;BME280;6687;47.790;7.322;2022-08-01T11:35:23;98917.03;;;38.94;21.50
13241;BME280;6687;47.790;7.322;2022-08-01T11:37:52;98913.91;;;38.83;21.80
13241;BME280;6687;47.790;7.322;2022-08-01T11:40:23;98915.22;;;38.64;21.78
13241;BME280;6687;47.790;7.322;2022-08-01T11:42:51;98917.84;;;38.01;20.48
13241;BME280;6687;47.790;7.322;2022-08-01T11:45:48;98911.97;;;38.37;20.29
13241;BME280;6687;47.790;7.322;2022-08-01T11:48:19;98895.91;;;38.67;21.82
13241;BME280;6687;47.790;7.322;2022-08-01T11:50:46;98890.69;;;38.26;19.42
13241;BME280;6687;47.790;7.322;2022-08-01T11:53:13;98887.75;;;37.96;20.03
13241;BME280;6687;47.790;7.322;2022-08-01T11:55:45;98894.78;;;37.08;20.70
13241;BME280;6687;47.790;7.322;2022-08-01T11:58:14;98897.28;;;37.75;19.74
13241;BME280;6687;47.790;7.322;2022-08-01T12:00:41;98904.22;;;38.26;19.34
13241;BME280;6687;47.790;7.322;2022-08-01T12:03:23;98889.53;;;37.48;19.79
13241;BME280;6687;47.790;7.322;2022-08-01T12:05:51;98887.22;;;38.09;19.63
13241;BME280;6687;47.790;7.322;2022-08-01T12:08:24;98890.97;;;37.91;21.40
13241;BME280;6687;47.790;7.322;2022-08-01T12:10:51;98871.47;;;37.48;19.39
13241;BME280;6687;47.790;7.322;2022-08-01T12:13:18;98884.41;;;37.86;21.93
13241;BME280;6687;47.790;7.322;2022-08-01T12:15:44;98879.72;;;37.71;21.98
13241;BME280;6687;47.790;7.322;2022-08-01T12:18:11;98863.88;;;38.08;19.48
13241;BME280;6687;47.790;7.322;2022-08-01T12:20:42;98875.50;;;37.69;20.57
13241;BME280;6687;47.790;7.322;2022-08-01T12:23:10;98866.97;;;37.88;21.78
13241;BME280;6687;47.790;7.322;2022-08-01T12:25:38;98840.56;;;37.59;21.73
13241;BME280;6687;47.790;7.322;2022-08-01T12:28:07;98862.56;;;37.95;20.62
13241;BME280;6687;47.790;7.322;2022-08-01T12:30:35;98874.25;;;37.88;19.24
13241;BME280;6687;47.790;7.322;2022-08-01T12:33:03;98865.41;;;36.89;20.00
13241;BME280;6687;47.790;7.322;2022-08-01T12:35:31;98863.53;;;37.63;19.49
13241;BME280;6687;47.790;7.322;2022-08-01T12:38:01;98860.81;;;37.63;19.36
13241;BME280;6687;47.790;7.322;2022-08-01T12:40:30;98863.84;;;37.68;20.73
13241;BME280;6687;47.790;7.322;2022-08-01T12:42:58;98855.03;;;37.58;21.69
13241;BME280;6687;47.790;7.322;2022-08-01T12:45:29;98857.81;;;37.33;21.57
13241;BME280;6687;47.790;7.322;2022-08-01T12:47:57;98860.13;;;36.54;20.37
13241;BME280;6687;47.790;7.322;2022-08-01T12:50:27;98863.91;;;37.19;21.87
13241;BME280;6687;47.790;7.322;2022-08-01T12:52:55;98863.38;;;37.07;21.77
13241;BME280;6687;47.790;7.322;2022-08-01T12:55:24;98858.81;;;37.49;21.08
13241;BME280;6687;47.790;7.322;2022-08-01T12:58:05;98852.56;;;36.82;20.36
13241;BME280;6687;47.790;7.322;2022-08-01T13:00:33;98858.16;;;37.22;21.28
13241;BME280;6687;47.790;7.322;2022-08-01T13:03:02;98850.69;;;36.75;20.38
13241;BME280;6687;47.790;7.322;2022-08-01T13:05:40;98857.63;;;37.02;19.92
13241;BME280;6687;47.790;7.322;2022-08-01T13:08:10;98848.03;;;36.99;19.76
13241;BME280;6687;47.790;7.322;2022-08-01T13:10:38;98849.38;;;37.03;20.53
13241;BME280;6687;47.790;7.322;2022-08-01T13:13:05;98854.28;;;37.33;20.61
13241;BME280;6687;47.790;7.322;2022-08-01T13:15:35;98854.91;;;37.59;20.90
13241;BME280;6687;47.790;7.322;2022-08-01T13:18:22;98842.16;;;37.85;21.30
13241;BME280;6687;47.790;7.322;2022-08-01T13:20:50;98838.69;;;37.99;20.58
13241;BME280;6687;47.790;7.322;2022-08-01T13:23:18;98841.69;;;38.04;20.32
13241;BME280;6687;47.790;7.322;2022-08-01T13:25:51;98846.59;;;38.40;19.10
13241;BME280;6687;47.790;7.322;2022-08-01T13:28:19;98840.25;;;38.33;19.33
13241;BME280;6687;47.790;7.322;2022-08-01T13:30:57;98844.28;;;38.37;18.97
13241;BME280;6687;47.790;7.322;2022-08-01T13:33:25;98849.28;;;38.94;18.45
13241;BME280;6687;47.790;7.322;2022-08-01T13:35:52;98839.94;;;38.82;17.83
13241;BME280;6687;47.790;7.322;2022-08-01T13:38:19;98839.94;;;38.51;18.05
13241;BME280;6687;47.790;7.322;2022-08-01T13:41:07;98835.59;;;38.18;18.15
13241;BME280;6687;47.790;7.322;2022-08-01T13:43:34;98830.06;;;38.35;18.75
13241;BME280;6687;47.790;7.322;2022-08-01T13:46:01;98827.16;;;37.66;20.74
13241;BME280;6687;47.790;7.322;2022-08-01T13:48:30;98864.91;;;37.01;21.01
13241;BME280;6687;47.790;7.322;2022-08-01T13:50:56;98858.50;;;37.91;20.02
13241;BME280;6687;47.790;7.322;2022-08-01T13:53:23;98844.63;;;38.34;20.90
13241;BME280;6687;47.790;7.322;2022-08-01T13:55:50;98852.28;;;37.91;21.25
13241;BME280;6687;47.790;7.322;2022-08-01T13:58:18;98856.44;;;37.37;21.93
13241;BME280;6687;47.790;7.322;2022-08-01T14:00:45;98853.97;;;37.84;21.48
13241;BME280;6687;47.790;7.322;2022-08-01T14:03:11;98858.44;;;37.52;21.22
13241;BME280;6687;47.790;7.322;2022-08-01T14:05:38;98857.31;;;37.94;20.90
13241;BME280;6687;47.790;7.322;2022-08-01T14:08:06;98838.56;;;37.92;21.37
13241;BME280;6687;47.790;7.322;2022-08-01T14:10:34;98839.25;;;36.81;22.91
13241;BME280;6687;47.790;7.322;2022-08-01T14:13:00;98843.44;;;36.08;24.14
13241;BME280;6687;47.790;7.322;2022-08-01T14:15:30;98846.66;;;35.69;24.05
13241;BME280;6687;47.790;7.322;2022-08-01T14:17:57;98845.72;;;35.87;24.22
13241;BME280;6687;47.790;7.322;2022-08-01T14:20:24;98843.50;;;36.16;24.20
13241;BME280;6687;47.790;7.322;2022-08-01T14:22:51;98842.03;;;35.88;24.20
13241;BME280;6687;47.790;7.322;2022-08-01T14:25:17;98844.81;;;36.12;23.75
13241;BME280;6687;47.790;7.322;2022-08-01T14:27:44;98843.19;;;35.59;24.17
13241;BME280;6687;47.790;7.322;2022-08-01T14:30:12;98843.88;;;36.30;23.57
13241;BME280;6687;47.790;7.322;2022-08-01T14:32:40;98848.94;;;36.41;23.32
13241;BME280;6687;47.790;7.322;2022-08-01T14:35:07;98855.22;;;36.58;23.08
13241;BME280;6687;47.790;7.322;2022-08-01T14:37:34;98852.09;;;37.12;22.85
13241;BME280;6687;47.790;7.322;2022-08-01T14:40:01;98856.78;;;37.59;21.98
13241;BME280;6687;47.790;7.322;2022-08-01T14:42:33;98853.53;;;37.55;21.54
13241;BME280;6687;47.790;7.322;2022-08-01T14:44:59;98843.28;;;38.30;21.24
13241;BME280;6687;47.790;7.322;2022-08-01T14:47:26;98838.69;;;37.99;22.25
13241;BME280;6687;47.790;7.322;2022-08-01T14:49:54;98847.16;;;38.35;21.94
13241;BME280;6687;47.790;7.322;2022-08-01T14:52:21;98852.22;;;38.07;21.98
13241;BME280;6687;47.790;7.322;2022-08-01T14:54:47;98850.88;;;38.66;21.87
13241;BME280;6687;47.790;7.322;2022-08-01T14:57:14;98856.91;;;38.76;20.89
13241;BME280;6687;47.790;7.322;2022-08-01T14:59:43;98862.84;;;38.40;21.48
13241;BME280;6687;47.790;7.322;2022-08-01T15:02:10;98859.78;;;38.74;21.55
13241;BME280;6687;47.790;7.322;2022-08-01T15:04:38;98860.81;;;38.73;21.30
13241;BME280;6687;47.790;7.322;2022-08-01T15:07:06;98868.56;;;38.76;21.42
13241;BME280;6687;47.790;7.322;2022-08-01T15:09:32;98863.66;;;38.17;19.43
13241;BME280;6687;47.790;7.322;2022-08-01T15:11:59;98866.75;;;38.06;19.12
13241;BME280;6687;47.790;7.322;2022-08-01T15:14:26;98860.91;;;38.26;19.10
13241;BME280;6687;47.790;7.322;2022-08-01T15:17:10;98850.97;;;38.49;20.78
13241;BME280;6687;47.790;7.322;2022-08-01T15:19:37;98856.69;;;37.84;19.58
13241;BME280;6687;47.790;7.322;2022-08-01T15:22:05;98855.16;;;38.29;19.49
13241;BME280;6687;47.790;7.322;2022-08-01T15:24:32;98859.75;;;38.20;19.88
13241;BME280;6687;47.790;7.322;2022-08-01T15:26:59;98870.00;;;37.13;20.31
13241;BME280;6687;47.790;7.322;2022-08-01T15:29:25;98864.41;;;37.39;21.35
13241;BME280;6687;47.790;7.322;2022-08-01T15:31:52;98863.00;;;38.15;20.97
13241;BME280;6687;47.790;7.322;2022-08-01T15:34:19;98859.81;;;37.48;20.56
13241;BME280;6687;47.790;7.322;2022-08-01T15:36:45;98867.63;;;37.01;22.84
13241;BME280;6687;47.790;7.322;2022-08-01T15:39:13;98869.00;;;35.88;24.50
13241;BME280;6687;47.790;7.322;2022-08-01T15:41:41;98865.34;;;36.05;24.28
13241;BME280;6687;47.790;7.322;2022-08-01T15:44:08;98866.44;;;36.20;24.01
13241;BME280;6687;47.790;7.322;2022-08-01T15:46:35;98865.34;;;36.48;23.56
13241;BME280;6687;47.790;7.322;2022-08-01T15:49:02;98867.22;;;36.13;23.76
13241;BME280;6687;47.790;7.322;2022-08-01T15:51:29;98868.09;;;36.13;23.99
13241;BME280;6687;47.790;7.322;2022-08-01T15:53:56;98872.66;;;35.52;22.94
13241;BME280;6687;47.790;7.322;2022-08-01T15:56:24;98862.78;;;36.38;22.01
13241;BME280;6687;47.790;7.322;2022-08-01T15:58:51;98863.00;;;36.61;22.09
13241;BME280;6687;47.790;7.322;2022-08-01T16:01:18;98862.41;;;36.33;21.31
13241;BME280;6687;47.790;7.322;2022-08-01T16:03:46;98866.66;;;36.35;21.59
13241;BME280;6687;47.790;7.322;2022-08-01T16:06:12;98857.16;;;36.23;23.27
13241;BME280;6687;47.790;7.322;2022-08-01T16:08:39;98862.63;;;35.97;21.57
13241;BME280;6687;47.790;7.322;2022-08-01T16:11:06;98861.59;;;35.90;21.86
13241;BME280;6687;47.790;7.322;2022-08-01T16:13:34;98860.25;;;35.41;22.05
13241;BME280;6687;47.790;7.322;2022-08-01T16:16:01;98862.28;;;35.39;23.65
13241;BME280;6687;47.790;7.322;2022-08-01T16:18:29;98868.09;;;34.37;26.08
13241;BME280;6687;47.790;7.322;2022-08-01T16:20:56;98864.09;;;35.13;25.44
13241;BME280;6687;47.790;7.322;2022-08-01T16:23:24;98866.16;;;33.92;26.76
13241;BME280;6687;47.790;7.322;2022-08-01T16:25:51;98852.72;;;34.65;26.03
13241;BME280;6687;47.790;7.322;2022-08-01T16:28:17;98849.63;;;35.14;25.49
13241;BME280;6687;47.790;7.322;2022-08-01T16:30:46;98856.25;;;35.01;25.42
13241;BME280;6687;47.790;7.322;2022-08-01T16:33:13;98855.97;;;34.69;25.91
13241;BME280;6687;47.790;7.322;2022-08-01T16:35:40;98851.97;;;34.73;26.29
13241;BME280;6687;47.790;7.322;2022-08-01T16:38:10;98863.19;;;33.95;27.90
13241;BME280;6687;47.790;7.322;2022-08-01T16:40:38;98874.56;;;33.88;28.31
13241;BME280;6687;47.790;7.322;2022-08-01T16:43:05;98872.69;;;33.32;29.65
13241;BME280;6687;47.790;7.322;2022-08-01T16:45:32;98871.84;;;33.02;30.29
13241;BME280;6687;47.790;7.322;2022-08-01T16:48:00;98877.56;;;33.09;30.45
13241;BME280;6687;47.790;7.322;2022-08-01T16:50:27;98878.28;;;33.68;29.51
13241;BME280;6687;47.790;7.322;2022-08-01T16:52:53;98876.19;;;33.52;30.52
13241;BME280;6687;47.790;7.322;2022-08-01T16:55:20;98876.31;;;32.34;33.35
13241;BME280;6687;47.790;7.322;2022-08-01T16:57:47;98881.16;;;32.49;32.61
13241;BME280;6687;47.790;7.322;2022-08-01T17:00:16;98883.97;;;32.48;33.14
13241;BME280;6687;47.790;7.322;2022-08-01T17:02:44;98896.38;;;31.68;35.17
13241;BME280;6687;47.790;7.322;2022-08-01T17:05:13;98880.44;;;31.45;35.25
13241;BME280;6687;47.790;7.322;2022-08-01T17:07:39;98877.94;;;31.11;35.96
13241;BME280;6687;47.790;7.322;2022-08-01T17:10:07;98877.75;;;31.24;35.96
13241;BME280;6687;47.790;7.322;2022-08-01T17:12:34;98883.13;;;31.24;38.86
13241;BME280;6687;47.790;7.322;2022-08-01T17:15:01;98888.38;;;30.50;44.28
13241;BME280;6687;47.790;7.322;2022-08-01T17:17:28;98901.63;;;30.51;46.16
13241;BME280;6687;47.790;7.322;2022-08-01T17:19:55;98899.63;;;29.99;44.53
13241;BME280;6687;47.790;7.322;2022-08-01T17:22:23;98918.13;;;29.66;43.15
13241;BME280;6687;47.790;7.322;2022-08-01T17:24:50;98903.44;;;29.14;43.11
13241;BME280;6687;47.790;7.322;2022-08-01T17:27:17;98918.50;;;29.62;41.69
13241;BME280;6687;47.790;7.322;2022-08-01T17:29:44;98924.56;;;29.64;42.42
13241;BME280;6687;47.790;7.322;2022-08-01T17:32:11;98919.03;;;30.12;40.96
13241;BME280;6687;47.790;7.322;2022-08-01T17:34:38;98926.06;;;30.02;41.21
13241;BME280;6687;47.790;7.322;2022-08-01T17:37:05;98940.03;;;29.25;43.13
13241;BME280;6687;47.790;7.322;2022-08-01T17:39:33;98934.94;;;29.33;41.92
13241;BME280;6687;47.790;7.322;2022-08-01T17:42:00;98944.31;;;29.39;42.31
13241;BME280;6687;47.790;7.322;2022-08-01T17:44:27;98947.72;;;28.92;42.49
13241;BME280;6687;47.790;7.322;2022-08-01T17:46:53;98949.63;;;28.29;44.02
13241;BME280;6687;47.790;7.322;2022-08-01T17:49:20;98947.81;;;28.30;44.00
13241;BME280;6687;47.790;7.322;2022-08-01T17:51:49;98954.91;;;28.55;42.85
13241;BME280;6687;47.790;7.322;2022-08-01T17:54:16;98953.69;;;27.96;44.81
13241;BME280;6687;47.790;7.322;2022-08-01T17:56:44;98954.53;;;27.84;45.46
13241;BME280;6687;47.790;7.322;2022-08-01T17:59:11;98958.16;;;27.57;46.74
13241;BME280;6687;47.790;7.322;2022-08-01T18:01:38;98949.28;;;28.34;44.61
13241;BME280;6687;47.790;7.322;2022-08-01T18:04:04;98965.63;;;27.78;46.39
13241;BME280;6687;47.790;7.322;2022-08-01T18:06:31;98973.03;;;27.47;46.03
13241;BME280;6687;47.790;7.322;2022-08-01T18:08:58;98983.53;;;28.14;44.58
13241;BME280;6687;47.790;7.322;2022-08-01T18:11:25;98987.44;;;27.70;46.09
13241;BME280;6687;47.790;7.322;2022-08-01T18:13:53;98990.97;;;28.22;44.97
13241;BME280;6687;47.790;7.322;2022-08-01T18:16:20;98992.69;;;28.23;45.20
13241;BME280;6687;47.790;7.322;2022-08-01T18:18:47;98997.75;;;27.75;47.70
13241;BME280;6687;47.790;7.322;2022-08-01T18:21:13;98995.97;;;27.75;46.50
13241;BME280;6687;47.790;7.322;2022-08-01T18:23:40;98996.41;;;27.29;48.37
13241;BME280;6687;47.790;7.322;2022-08-01T18:26:07;98994.94;;;27.38;47.93
13241;BME280;6687;47.790;7.322;2022-08-01T18:28:34;98993.56;;;27.98;45.74
13241;BME280;6687;47.790;7.322;2022-08-01T18:31:04;98996.34;;;28.09;45.90
13241;BME280;6687;47.790;7.322;2022-08-01T18:33:31;98996.13;;;28.00;46.82
13241;BME280;6687;47.790;7.322;2022-08-01T18:35:58;98996.63;;;28.05;46.85
13241;BME280;6687;47.790;7.322;2022-08-01T18:38:25;98997.88;;;28.50;44.70
13241;BME280;6687;47.790;7.322;2022-08-01T18:40:52;98997.56;;;27.78;46.99
13241;BME280;6687;47.790;7.322;2022-08-01T18:43:19;99001.50;;;27.85;45.78
13241;BME280;6687;47.790;7.322;2022-08-01T18:45:46;99001.41;;;28.38;45.29
13241;BME280;6687;47.790;7.322;2022-08-01T18:48:14;99014.34;;;28.06;46.27
13241;BME280;6687;47.790;7.322;2022-08-01T18:50:40;99020.19;;;28.11;45.46
13241;BME280;6687;47.790;7.322;2022-08-01T18:53:07;99029.19;;;27.70;46.74
13241;BME280;6687;47.790;7.322;2022-08-01T18:55:34;99025.56;;;27.31;48.28
13241;BME280;6687;47.790;7.322;2022-08-01T18:58:01;99031.00;;;27.82;45.23
13241;BME280;6687;47.790;7.322;2022-08-01T19:00:28;99039.91;;;27.01;49.18
13241;BME280;6687;47.790;7.322;2022-08-01T19:02:55;99054.28;;;25.82;52.87
13241;BME280;6687;47.790;7.322;2022-08-01T19:05:23;99074.59;;;25.37;54.61
13241;BME280;6687;47.790;7.322;2022-08-01T19:07:50;99076.09;;;26.32;51.88
13241;BME280;6687;47.790;7.322;2022-08-01T19:10:17;99080.44;;;25.88;52.51
13241;BME280;6687;47.790;7.322;2022-08-01T19:12:43;99078.03;;;25.39;54.86
13241;BME280;6687;47.790;7.322;2022-08-01T19:15:10;99071.81;;;25.54;54.54
13241;BME280;6687;47.790;7.322;2022-08-01T19:17:37;99083.13;;;25.10;55.78
13241;BME280;6687;47.790;7.322;2022-08-01T19:20:05;99090.75;;;25.00;56.64
13241;BME280;6687;47.790;7.322;2022-08-01T19:22:33;99093.03;;;24.41;57.38
13241;BME280;6687;47.790;7.322;2022-08-01T19:25:00;99090.63;;;24.70;57.36
13241;BME280;6687;47.790;7.322;2022-08-01T19:27:28;99091.69;;;24.33;58.39
13241;BME280;6687;47.790;7.322;2022-08-01T19:30:00;99087.06;;;24.20;58.58